sensor_id;sensor_type;location;lat;lon;timestamp;temperature;humidity
20158;DHT22;10239;56.820;24.416;2023-02-13T00:00:54;4.80;99.90
20158;DHT22;10239;56.820;24.416;2023-02-13T00:03:22;4.80;99.90
20158;DHT22;10239;56.820;24.416;2023-02-13T00:05:49;4.80;99.90
20158;DHT22;10239;56.820;24.416;2023-02-13T00:08:17;4.80;99.90
20158;DHT22;10239;56.820;24.416;2023-02-13T00:10:46;4.80;99.90
20158;DHT22;10239;56.820;24.416;2023-02-13T00:13:14;4.90;99.90
20158;DHT22;10239;56.820;24.416;2023-02-13T00:15:42;4.90;99.90
20158;DHT22;10239;56.820;24.416;2023-02-13T00:18:09;4.90;99.90
20158;DHT22;10239;56.820;24.416;2023-02-13T00:20:37;4.90;99.90
20158;DHT22;10239;56.820;24.416;2023-02-13T00:23:04;4.90;99.90
20158;DHT22;10239;56.820;24.416;2023-02-13T00:25:32;4.90;99.90
20158;DHT22;10239;56.820;24.416;2023-02-13T00:27:59;4.90;99.90
20158;DHT22;10239;56.820;24.416;2023-02-13T00:30:27;4.90;99.90
20158;DHT22;10239;56.820;24.416;2023-02-13T00:32:54;4.90;99.90
20158;DHT22;10239;56.820;24.416;2023-02-13T00:35:23;5.00;99.90
20158;DHT22;10239;56.820;24.416;2023-02-13T00:37:51;5.00;99.90
20158;DHT22;10239;56.820;24.416;2023-02-13T00:40:23;5.00;99.90
20158;DHT22;10239;56.820;24.416;2023-02-13T00:42:51;5.00;99.90
20158;DHT22;10239;56.820;24.416;2023-02-13T00:45:19;5.00;99.90
20158;DHT22;10239;56.820;24.416;2023-02-13T00:47:46;4.90;99.90
20158;DHT22;10239;56.820;24.416;2023-02-13T00:50:14;5.00;99.90
20158;DHT22;10239;56.820;24.416;2023-02-13T00:52:42;5.00;99.90
20158;DHT22;10239;56.820;24.416;2023-02-13T00:55:12;5.00;99.90
20158;DHT22;10239;56.820;24.416;2023-02-13T00:57:39;5.10;99.90
20158;DHT22;10239;56.820;24.416;2023-02-13T01:00:07;5.10;99.90
20158;DHT22;10239;56.820;24.416;2023-02-13T01:02:35;5.10;99.90
20158;DHT22;10239;56.820;24.416;2023-02-13T01:05:03;5.10;99.90
20158;DHT22;10239;56.820;24.416;2023-02-13T01:07:30;5.00;99.90
20158;DHT22;10239;56.820;24.416;2023-02-13T01:09:58;5.10;99.90
20158;DHT22;10239;56.820;24.416;2023-02-13T01:12:26;5.10;99.90
20158;DHT22;10239;56.820;24.416;2023-02-13T01:14:53;5.10;99.90
20158;DHT22;10239;56.820;24.416;2023-02-13T01:17:21;5.10;99.90
20158;DHT22;10239;56.820;24.416;2023-02-13T01:19:48;5.20;99.90
20158;DHT22;10239;56.820;24.416;2023-02-13T01:22:16;5.20;99.90
20158;DHT22;10239;56.820;24.416;2023-02-13T01:24:43;5.10;99.90
20158;DHT22;10239;56.820;24.416;2023-02-13T01:27:11;5.10;99.90
20158;DHT22;10239;56.820;24.416;2023-02-13T01:29:39;5.20;99.90
20158;DHT22;10239;56.820;24.416;2023-02-13T01:32:07;5.20;99.90
20158;DHT22;10239;56.820;24.416;2023-02-13T01:34:34;5.20;99.90
20158;DHT22;10239;56.820;24.416;2023-02-13T01:37:03;5.20;99.90
20158;DHT22;10239;56.820;24.416;2023-02-13T01:39:30;5.20;99.90
20158;DHT22;10239;56.820;24.416;2023-02-13T01:41:59;5.30;99.90
20158;DHT22;10239;56.820;24.416;2023-02-13T01:44:50;5.30;99.90
20158;DHT22;10239;56.820;24.416;2023-02-13T01:52:54;5.20;99.90
20158;DHT22;10239;56.820;24.416;2023-02-13T01:55:25;5.30;99.90
20158;DHT22;10239;56.820;24.416;2023-02-13T01:58:02;5.30;99.90
20158;DHT22;10239;56.820;24.416;2023-02-13T02:00:31;5.30;99.90
20158;DHT22;10239;56.820;24.416;2023-02-13T02:03:13;5.30;99.90
20158;DHT22;10239;56.820;24.416;2023-02-13T02:05:43;5.30;99.90
20158;DHT22;10239;56.820;24.416;2023-02-13T02:08:12;5.30;99.90
20158;DHT22;10239;56.820;24.416;2023-02-13T02:10:40;5.30;99.90
20158;DHT22;10239;56.820;24.416;2023-02-13T02:13:12;5.30;99.90
20158;DHT22;10239;56.820;24.416;2023-02-13T02:15:41;5.30;99.90
20158;DHT22;10239;56.820;24.416;2023-02-13T02:18:21;5.40;99.90
20158;DHT22;10239;56.820;24.416;2023-02-13T02:40:56;5.20;99.90
20158;DHT22;10239;56.820;24.416;2023-02-13T02:44:07;5.20;99.90
20158;DHT22;10239;56.820;24.416;2023-02-13T02:47:07;5.20;99.90
20158;DHT22;10239;56.820;24.416;2023-02-13T02:53:03;5.30;99.90
20158;DHT22;10239;56.820;24.416;2023-02-13T03:01:58;5.30;99.90
20158;DHT22;10239;56.820;24.416;2023-02-13T03:04:51;5.30;99.90
20158;DHT22;10239;56.820;24.416;2023-02-13T03:07:38;5.30;99.90
20158;DHT22;10239;56.820;24.416;2023-02-13T03:10:09;5.20;99.90
20158;DHT22;10239;56.820;24.416;2023-02-13T03:13:02;5.20;99.90
20158;DHT22;10239;56.820;24.416;2023-02-13T03:15:56;5.20;99.90
20158;DHT22;10239;56.820;24.416;2023-02-13T03:18:49;5.20;99.90
20158;DHT22;10239;56.820;24.416;2023-02-13T03:25:06;5.30;99.90
20158;DHT22;10239;56.820;24.416;2023-02-13T03:27:44;5.30;99.90
20158;DHT22;10239;56.820;24.416;2023-02-13T03:36:09;5.20;99.90
20158;DHT22;10239;56.820;24.416;2023-02-13T03:39:07;5.30;99.90
20158;DHT22;10239;56.820;24.416;2023-02-13T03:41:57;5.30;99.90
20158;DHT22;10239;56.820;24.416;2023-02-13T03:47:36;5.20;99.90
20158;DHT22;10239;56.820;24.416;2023-02-13T03:50:07;5.20;99.90
20158;DHT22;10239;56.820;24.416;2023-02-13T03:55:26;5.10;99.90
20158;DHT22;10239;56.820;24.416;2023-02-13T03:58:22;5.10;99.90
20158;DHT22;10239;56.820;24.416;2023-02-13T04:01:12;5.10;99.90
20158;DHT22;10239;56.820;24.416;2023-02-13T04:03:54;5.10;99.90
20158;DHT22;10239;56.820;24.416;2023-02-13T04:06:32;5.10;99.90
20158;DHT22;10239;56.820;24.416;2023-02-13T04:09:01;5.10;99.90
20158;DHT22;10239;56.820;24.416;2023-02-13T04:17:26;5.20;99.90
20158;DHT22;10239;56.820;24.416;2023-02-13T04:19:56;5.20;99.90
20158;DHT22;10239;56.820;24.416;2023-02-13T04:22:23;5.20;99.90
20158;DHT22;10239;56.820;24.416;2023-02-13T04:24:51;5.20;99.90
20158;DHT22;10239;56.820;24.416;2023-02-13T04:27:18;5.20;99.90
20158;DHT22;10239;56.820;24.416;2023-02-13T04:29:46;5.20;99.90
20158;DHT22;10239;56.820;24.416;2023-02-13T04:32:13;5.20;99.90
20158;DHT22;10239;56.820;24.416;2023-02-13T04:34:41;5.20;99.90
20158;DHT22;10239;56.820;24.416;2023-02-13T04:37:08;5.20;99.90
20158;DHT22;10239;56.820;24.416;2023-02-13T04:39:35;5.20;99.90
20158;DHT22;10239;56.820;24.416;2023-02-13T04:42:03;5.20;99.90
20158;DHT22;10239;56.820;24.416;2023-02-13T04:44:30;5.20;99.90
20158;DHT22;10239;56.820;24.416;2023-02-13T04:46:58;5.10;99.90
20158;DHT22;10239;56.820;24.416;2023-02-13T04:49:26;5.20;99.90
20158;DHT22;10239;56.820;24.416;2023-02-13T04:51:53;5.10;99.90
20158;DHT22;10239;56.820;24.416;2023-02-13T04:54:21;5.10;99.90
20158;DHT22;10239;56.820;24.416;2023-02-13T04:56:48;5.00;99.90
20158;DHT22;10239;56.820;24.416;2023-02-13T04:59:16;5.00;99.90
20158;DHT22;10239;56.820;24.416;2023-02-13T05:01:43;5.00;99.90
20158;DHT22;10239;56.820;24.416;2023-02-13T05:04:11;5.00;99.90
20158;DHT22;10239;56.820;24.416;2023-02-13T05:06:42;5.00;99.90
20158;DHT22;10239;56.820;24.416;2023-02-13T05:09:10;5.00;99.90
20158;DHT22;10239;56.820;24.416;2023-02-13T05:11:37;4.90;99.90
20158;DHT22;10239;56.820;24.416;2023-02-13T05:14:05;4.90;99.90
20158;DHT22;10239;56.820;24.416;2023-02-13T05:16:32;4.90;99.90
20158;DHT22;10239;56.820;24.416;2023-02-13T05:19:00;4.90;99.90
20158;DHT22;10239;56.820;24.416;2023-02-13T05:21:28;4.90;99.90
20158;DHT22;10239;56.820;24.416;2023-02-13T05:24:14;4.90;99.90
20158;DHT22;10239;56.820;24.416;2023-02-13T05:26:41;4.80;99.90
20158;DHT22;10239;56.820;24.416;2023-02-13T05:29:10;4.80;99.90
20158;DHT22;10239;56.820;24.416;2023-02-13T05:31:55;4.80;99.90
20158;DHT22;10239;56.820;24.416;2023-02-13T05:34:25;4.80;99.90
20158;DHT22;10239;56.820;24.416;2023-02-13T05:36:53;4.80;99.90
20158;DHT22;10239;56.820;24.416;2023-02-13T05:39:21;4.80;99.90
20158;DHT22;10239;56.820;24.416;2023-02-13T05:41:49;4.80;99.90
20158;DHT22;10239;56.820;24.416;2023-02-13T05:44:16;4.80;99.90
20158;DHT22;10239;56.820;24.416;2023-02-13T05:46:44;4.80;99.90
20158;DHT22;10239;56.820;24.416;2023-02-13T05:49:13;4.80;99.90
20158;DHT22;10239;56.820;24.416;2023-02-13T05:51:41;4.80;99.90
20158;DHT22;10239;56.820;24.416;2023-02-13T05:54:08;4.70;99.90
20158;DHT22;10239;56.820;24.416;2023-02-13T05:56:36;4.70;99.90
20158;DHT22;10239;56.820;24.416;2023-02-13T05:59:04;4.80;99.90
20158;DHT22;10239;56.820;24.416;2023-02-13T06:01:31;4.70;99.90
20158;DHT22;10239;56.820;24.416;2023-02-13T06:03:59;4.70;99.90
20158;DHT22;10239;56.820;24.416;2023-02-13T06:06:29;4.70;99.90
20158;DHT22;10239;56.820;24.416;2023-02-13T06:08:57;4.70;99.90
20158;DHT22;10239;56.820;24.416;2023-02-13T06:11:24;4.70;99.90
20158;DHT22;10239;56.820;24.416;2023-02-13T06:13:52;4.70;99.90
20158;DHT22;10239;56.820;24.416;2023-02-13T06:16:19;4.70;99.90
20158;DHT22;10239;56.820;24.416;2023-02-13T06:18:48;4.70;99.90
20158;DHT22;10239;56.820;24.416;2023-02-13T06:21:16;4.70;99.90
20158;DHT22;10239;56.820;24.416;2023-02-13T06:23:44;4.80;99.90
20158;DHT22;10239;56.820;24.416;2023-02-13T06:26:11;4.90;99.90
20158;DHT22;10239;56.820;24.416;2023-02-13T06:28:39;4.90;99.90
20158;DHT22;10239;56.820;24.416;2023-02-13T06:31:06;4.90;99.90
20158;DHT22;10239;56.820;24.416;2023-02-13T06:33:34;4.90;99.90
20158;DHT22;10239;56.820;24.416;2023-02-13T06:36:02;5.00;99.90
20158;DHT22;10239;56.820;24.416;2023-02-13T06:38:29;5.10;99.90
20158;DHT22;10239;56.820;24.416;2023-02-13T06:41:01;5.20;99.90
20158;DHT22;10239;56.820;24.416;2023-02-13T06:43:29;5.20;99.90
20158;DHT22;10239;56.820;24.416;2023-02-13T06:45:57;5.30;99.90
20158;DHT22;10239;56.820;24.416;2023-02-13T06:48:25;5.30;99.90
20158;DHT22;10239;56.820;24.416;2023-02-13T06:50:52;5.40;99.90
20158;DHT22;10239;56.820;24.416;2023-02-13T06:53:20;5.40;99.90
20158;DHT22;10239;56.820;24.416;2023-02-13T06:55:51;5.40;99.90
20158;DHT22;10239;56.820;24.416;2023-02-13T06:58:23;5.50;99.90
20158;DHT22;10239;56.820;24.416;2023-02-13T07:00:52;5.50;99.90
20158;DHT22;10239;56.820;24.416;2023-02-13T07:03:20;5.50;99.90
20158;DHT22;10239;56.820;24.416;2023-02-13T07:05:47;5.60;99.90
20158;DHT22;10239;56.820;24.416;2023-02-13T07:08:18;5.60;99.90
20158;DHT22;10239;56.820;24.416;2023-02-13T07:10:46;5.60;99.90
20158;DHT22;10239;56.820;24.416;2023-02-13T07:13:13;5.60;99.90
20158;DHT22;10239;56.820;24.416;2023-02-13T07:15:41;5.60;99.90
20158;DHT22;10239;56.820;24.416;2023-02-13T07:18:09;5.60;99.90
20158;DHT22;10239;56.820;24.416;2023-02-13T07:20:36;5.70;99.90
20158;DHT22;10239;56.820;24.416;2023-02-13T07:23:05;5.80;99.90
20158;DHT22;10239;56.820;24.416;2023-02-13T07:25:33;5.80;99.90
20158;DHT22;10239;56.820;24.416;2023-02-13T07:28:03;5.90;99.90
20158;DHT22;10239;56.820;24.416;2023-02-13T07:30:33;5.90;99.90
20158;DHT22;10239;56.820;24.416;2023-02-13T07:33:10;5.90;99.90
20158;DHT22;10239;56.820;24.416;2023-02-13T07:35:48;5.80;99.90
20158;DHT22;10239;56.820;24.416;2023-02-13T07:38:17;5.80;99.90
20158;DHT22;10239;56.820;24.416;2023-02-13T07:40:45;5.90;99.90
20158;DHT22;10239;56.820;24.416;2023-02-13T07:43:13;5.90;99.90
20158;DHT22;10239;56.820;24.416;2023-02-13T07:45:40;6.00;99.90
20158;DHT22;10239;56.820;24.416;2023-02-13T07:48:08;6.00;99.90
20158;DHT22;10239;56.820;24.416;2023-02-13T07:50:36;6.00;99.90
20158;DHT22;10239;56.820;24.416;2023-02-13T07:53:03;6.00;99.90
20158;DHT22;10239;56.820;24.416;2023-02-13T07:55:31;5.90;99.90
20158;DHT22;10239;56.820;24.416;2023-02-13T07:57:59;6.10;99.90
20158;DHT22;10239;56.820;24.416;2023-02-13T08:00:27;6.10;99.90
20158;DHT22;10239;56.820;24.416;2023-02-13T08:02:58;6.10;99.90
20158;DHT22;10239;56.820;24.416;2023-02-13T08:05:27;6.10;99.90
20158;DHT22;10239;56.820;24.416;2023-02-13T08:07:55;6.20;99.90
20158;DHT22;10239;56.820;24.416;2023-02-13T08:10:23;6.30;99.90
20158;DHT22;10239;56.820;24.416;2023-02-13T08:13:12;6.30;99.90
20158;DHT22;10239;56.820;24.416;2023-02-13T08:15:40;6.40;99.90
20158;DHT22;10239;56.820;24.416;2023-02-13T08:18:10;6.50;99.90
20158;DHT22;10239;56.820;24.416;2023-02-13T08:20:38;6.50;99.90
20158;DHT22;10239;56.820;24.416;2023-02-13T08:23:08;6.50;99.90
20158;DHT22;10239;56.820;24.416;2023-02-13T08:25:37;6.50;99.90
20158;DHT22;10239;56.820;24.416;2023-02-13T08:28:04;6.70;99.90
20158;DHT22;10239;56.820;24.416;2023-02-13T08:30:33;6.90;99.90
20158;DHT22;10239;56.820;24.416;2023-02-13T08:33:00;7.10;99.90
20158;DHT22;10239;56.820;24.416;2023-02-13T08:35:28;7.20;99.90
20158;DHT22;10239;56.820;24.416;2023-02-13T08:38:02;7.50;99.90
20158;DHT22;10239;56.820;24.416;2023-02-13T08:40:31;7.70;99.90
20158;DHT22;10239;56.820;24.416;2023-02-13T08:43:00;7.80;99.90
20158;DHT22;10239;56.820;24.416;2023-02-13T08:45:28;7.80;99.90
20158;DHT22;10239;56.820;24.416;2023-02-13T08:47:57;8.00;99.90
20158;DHT22;10239;56.820;24.416;2023-02-13T08:50:26;8.20;99.90
20158;DHT22;10239;56.820;24.416;2023-02-13T08:52:53;8.70;99.90
20158;DHT22;10239;56.820;24.416;2023-02-13T08:55:21;9.20;99.90
20158;DHT22;10239;56.820;24.416;2023-02-13T08:57:49;9.60;99.90
20158;DHT22;10239;56.820;24.416;2023-02-13T09:00:16;9.90;99.90
20158;DHT22;10239;56.820;24.416;2023-02-13T09:02:44;10.30;99.90
20158;DHT22;10239;56.820;24.416;2023-02-13T09:05:12;10.40;99.90
20158;DHT22;10239;56.820;24.416;2023-02-13T09:07:41;10.50;99.90
20158;DHT22;10239;56.820;24.416;2023-02-13T09:10:09;10.80;99.90
20158;DHT22;10239;56.820;24.416;2023-02-13T09:12:37;10.90;99.90
20158;DHT22;10239;56.820;24.416;2023-02-13T09:15:05;11.10;99.90
20158;DHT22;10239;56.820;24.416;2023-02-13T09:17:32;11.40;99.90
20158;DHT22;10239;56.820;24.416;2023-02-13T09:20:00;11.60;99.90
20158;DHT22;10239;56.820;24.416;2023-02-13T09:22:27;12.00;99.90
20158;DHT22;10239;56.820;24.416;2023-02-13T09:24:55;12.10;99.90
20158;DHT22;10239;56.820;24.416;2023-02-13T09:27:22;12.20;99.90
20158;DHT22;10239;56.820;24.416;2023-02-13T09:29:50;12.00;99.90
20158;DHT22;10239;56.820;24.416;2023-02-13T09:32:17;12.10;99.90
20158;DHT22;10239;56.820;24.416;2023-02-13T09:34:45;12.20;99.90
20158;DHT22;10239;56.820;24.416;2023-02-13T09:37:12;12.10;99.90
20158;DHT22;10239;56.820;24.416;2023-02-13T09:39:40;12.10;99.90
20158;DHT22;10239;56.820;24.416;2023-02-13T09:42:19;11.90;99.90
20158;DHT22;10239;56.820;24.416;2023-02-13T09:44:48;11.80;99.90
20158;DHT22;10239;56.820;24.416;2023-02-13T09:47:40;11.60;99.90
20158;DHT22;10239;56.820;24.416;2023-02-13T09:50:21;11.70;99.90
20158;DHT22;10239;56.820;24.416;2023-02-13T09:52:52;12.30;99.90
20158;DHT22;10239;56.820;24.416;2023-02-13T09:55:29;12.80;99.90
20158;DHT22;10239;56.820;24.416;2023-02-13T09:58:17;13.10;99.90
20158;DHT22;10239;56.820;24.416;2023-02-13T10:00:53;13.70;99.90
20158;DHT22;10239;56.820;24.416;2023-02-13T10:06:22;13.50;99.90
20158;DHT22;10239;56.820;24.416;2023-02-13T10:09:16;13.10;99.90
20158;DHT22;10239;56.820;24.416;2023-02-13T10:12:25;12.70;99.90
20158;DHT22;10239;56.820;24.416;2023-02-13T10:15:22;12.10;99.90
20158;DHT22;10239;56.820;24.416;2023-02-13T10:18:03;11.50;99.90
20158;DHT22;10239;56.820;24.416;2023-02-13T10:20:37;11.10;99.90
20158;DHT22;10239;56.820;24.416;2023-02-13T10:23:37;10.80;99.90
20158;DHT22;10239;56.820;24.416;2023-02-13T10:26:23;10.50;99.90
20158;DHT22;10239;56.820;24.416;2023-02-13T10:29:19;10.10;99.90
20158;DHT22;10239;56.820;24.416;2023-02-13T10:32:13;10.00;99.90
20158;DHT22;10239;56.820;24.416;2023-02-13T10:34:44;10.20;99.90
20158;DHT22;10239;56.820;24.416;2023-02-13T10:37:15;10.50;99.90
20158;DHT22;10239;56.820;24.416;2023-02-13T10:39:45;10.80;99.90
20158;DHT22;10239;56.820;24.416;2023-02-13T10:42:33;11.10;99.90
20158;DHT22;10239;56.820;24.416;2023-02-13T10:46:27;11.50;99.90
20158;DHT22;10239;56.820;24.416;2023-02-13T10:51:45;13.00;99.90
20158;DHT22;10239;56.820;24.416;2023-02-13T10:57:49;13.70;99.90
20158;DHT22;10239;56.820;24.416;2023-02-13T11:02:55;13.80;99.90
20158;DHT22;10239;56.820;24.416;2023-02-13T11:05:29;13.90;99.90
20158;DHT22;10239;56.820;24.416;2023-02-13T11:07:58;13.80;99.90
20158;DHT22;10239;56.820;24.416;2023-02-13T11:10:26;13.80;99.90
20158;DHT22;10239;56.820;24.416;2023-02-13T11:12:54;13.60;99.90
20158;DHT22;10239;56.820;24.416;2023-02-13T11:15:27;13.50;99.90
20158;DHT22;10239;56.820;24.416;2023-02-13T11:18:00;13.40;99.90
20158;DHT22;10239;56.820;24.416;2023-02-13T11:20:34;13.40;99.90
20158;DHT22;10239;56.820;24.416;2023-02-13T11:26:08;13.40;99.90
20158;DHT22;10239;56.820;24.416;2023-02-13T11:28:55;13.40;99.90
20158;DHT22;10239;56.820;24.416;2023-02-13T11:33:51;13.20;99.90
20158;DHT22;10239;56.820;24.416;2023-02-13T11:39:19;13.30;99.90
20158;DHT22;10239;56.820;24.416;2023-02-13T11:41:47;13.10;99.90
20158;DHT22;10239;56.820;24.416;2023-02-13T11:44:28;12.90;99.90
20158;DHT22;10239;56.820;24.416;2023-02-13T11:46:59;12.70;99.90
20158;DHT22;10239;56.820;24.416;2023-02-13T11:49:29;12.50;99.90
20158;DHT22;10239;56.820;24.416;2023-02-13T11:52:01;12.40;99.90
20158;DHT22;10239;56.820;24.416;2023-02-13T11:59:39;12.30;99.90
20158;DHT22;10239;56.820;24.416;2023-02-13T12:02:22;12.20;99.90
20158;DHT22;10239;56.820;24.416;2023-02-13T12:05:54;12.00;99.90
20158;DHT22;10239;56.820;24.416;2023-02-13T12:08:15;11.90;99.90
20158;DHT22;10239;56.820;24.416;2023-02-13T12:10:43;11.80;99.90
20158;DHT22;10239;56.820;24.416;2023-02-13T12:13:20;11.80;99.90
20158;DHT22;10239;56.820;24.416;2023-02-13T12:15:59;11.60;99.90
20158;DHT22;10239;56.820;24.416;2023-02-13T12:18:45;11.60;99.90
20158;DHT22;10239;56.820;24.416;2023-02-13T12:24:19;11.60;99.90
20158;DHT22;10239;56.820;24.416;2023-02-13T12:26:56;11.60;99.90
20158;DHT22;10239;56.820;24.416;2023-02-13T12:29:52;11.50;99.90
20158;DHT22;10239;56.820;24.416;2023-02-13T12:35:24;11.40;99.90
20158;DHT22;10239;56.820;24.416;2023-02-13T12:41:04;11.50;99.90
20158;DHT22;10239;56.820;24.416;2023-02-13T12:46:15;11.30;99.90
20158;DHT22;10239;56.820;24.416;2023-02-13T12:49:22;11.20;99.90
20158;DHT22;10239;56.820;24.416;2023-02-13T12:55:01;11.20;99.90
20158;DHT22;10239;56.820;24.416;2023-02-13T13:08:35;11.10;99.90
20158;DHT22;10239;56.820;24.416;2023-02-13T13:22:37;10.60;99.90
20158;DHT22;10239;56.820;24.416;2023-02-13T13:25:35;10.30;99.90
20158;DHT22;10239;56.820;24.416;2023-02-13T13:28:13;10.10;99.90
20158;DHT22;10239;56.820;24.416;2023-02-13T13:30:42;9.80;99.90
20158;DHT22;10239;56.820;24.416;2023-02-13T13:33:18;9.70;99.90
20158;DHT22;10239;56.820;24.416;2023-02-13T13:36:06;9.50;99.90
20158;DHT22;10239;56.820;24.416;2023-02-13T13:38:45;9.50;99.90
20158;DHT22;10239;56.820;24.416;2023-02-13T13:41:34;9.40;99.90
20158;DHT22;10239;56.820;24.416;2023-02-13T13:47:08;9.10;99.90
20158;DHT22;10239;56.820;24.416;2023-02-13T13:49:55;9.10;99.90
20158;DHT22;10239;56.820;24.416;2023-02-13T13:52:35;9.10;99.90
20158;DHT22;10239;56.820;24.416;2023-02-13T14:01:21;8.90;99.90
20158;DHT22;10239;56.820;24.416;2023-02-13T14:07:12;8.80;99.90
20158;DHT22;10239;56.820;24.416;2023-02-13T14:09:42;8.60;99.90
20158;DHT22;10239;56.820;24.416;2023-02-13T14:14:56;8.50;99.90
20158;DHT22;10239;56.820;24.416;2023-02-13T14:31:33;8.00;99.90
20158;DHT22;10239;56.820;24.416;2023-02-13T14:39:33;7.90;99.90
20158;DHT22;10239;56.820;24.416;2023-02-13T14:42:27;7.80;99.90
20158;DHT22;10239;56.820;24.416;2023-02-13T14:44:57;7.70;99.90
20158;DHT22;10239;56.820;24.416;2023-02-13T14:47:39;7.70;99.90
20158;DHT22;10239;56.820;24.416;2023-02-13T14:50:19;7.60;99.90
20158;DHT22;10239;56.820;24.416;2023-02-13T14:52:49;7.60;99.90
20158;DHT22;10239;56.820;24.416;2023-02-13T14:55:39;7.60;99.90
20158;DHT22;10239;56.820;24.416;2023-02-13T14:58:15;7.50;99.90
20158;DHT22;10239;56.820;24.416;2023-02-13T15:01:04;7.50;99.90
20158;DHT22;10239;56.820;24.416;2023-02-13T15:03:50;7.40;99.90
20158;DHT22;10239;56.820;24.416;2023-02-13T15:06:32;7.30;99.90
20158;DHT22;10239;56.820;24.416;2023-02-13T15:09:05;7.30;99.90
20158;DHT22;10239;56.820;24.416;2023-02-13T15:11:42;7.20;99.90
20158;DHT22;10239;56.820;24.416;2023-02-13T15:14:16;7.10;99.90
20158;DHT22;10239;56.820;24.416;2023-02-13T15:16:50;7.10;99.90
20158;DHT22;10239;56.820;24.416;2023-02-13T15:19:20;7.00;99.90
20158;DHT22;10239;56.820;24.416;2023-02-13T15:24:22;6.80;99.90
20158;DHT22;10239;56.820;24.416;2023-02-13T15:27:02;6.70;99.90
20158;DHT22;10239;56.820;24.416;2023-02-13T15:29:30;6.70;99.90
20158;DHT22;10239;56.820;24.416;2023-02-13T15:32:23;6.60;99.90
20158;DHT22;10239;56.820;24.416;2023-02-13T15:34:52;6.60;99.90
20158;DHT22;10239;56.820;24.416;2023-02-13T15:37:26;6.50;99.90
20158;DHT22;10239;56.820;24.416;2023-02-13T15:39:54;6.40;99.90
20158;DHT22;10239;56.820;24.416;2023-02-13T15:42:22;6.30;99.90
20158;DHT22;10239;56.820;24.416;2023-02-13T15:44:52;6.30;99.90
20158;DHT22;10239;56.820;24.416;2023-02-13T15:47:27;6.30;99.90
20158;DHT22;10239;56.820;24.416;2023-02-13T15:49:55;6.30;99.90
20158;DHT22;10239;56.820;24.416;2023-02-13T15:52:28;6.20;99.90
20158;DHT22;10239;56.820;24.416;2023-02-13T15:54:58;6.10;99.90
20158;DHT22;10239;56.820;24.416;2023-02-13T15:57:26;6.10;99.90
20158;DHT22;10239;56.820;24.416;2023-02-13T15:59:56;6.10;99.90
20158;DHT22;10239;56.820;24.416;2023-02-13T16:02:33;6.10;99.90
20158;DHT22;10239;56.820;24.416;2023-02-13T16:05:01;6.00;99.90
20158;DHT22;10239;56.820;24.416;2023-02-13T16:07:29;5.90;99.90
20158;DHT22;10239;56.820;24.416;2023-02-13T16:10:16;5.90;99.90
20158;DHT22;10239;56.820;24.416;2023-02-13T16:12:46;5.80;99.90
20158;DHT22;10239;56.820;24.416;2023-02-13T16:15:17;5.80;99.90
20158;DHT22;10239;56.820;24.416;2023-02-13T16:17:45;5.80;99.90
20158;DHT22;10239;56.820;24.416;2023-02-13T16:22:47;5.70;99.90
20158;DHT22;10239;56.820;24.416;2023-02-13T16:25:30;5.70;99.90
20158;DHT22;10239;56.820;24.416;2023-02-13T16:28:04;5.70;99.90
20158;DHT22;10239;56.820;24.416;2023-02-13T16:30:46;5.70;99.90
20158;DHT22;10239;56.820;24.416;2023-02-13T16:33:21;5.60;99.90
20158;DHT22;10239;56.820;24.416;2023-02-13T16:38:44;5.50;99.90
20158;DHT22;10239;56.820;24.416;2023-02-13T16:43:50;5.60;99.90
20158;DHT22;10239;56.820;24.416;2023-02-13T16:49:03;5.50;99.90
20158;DHT22;10239;56.820;24.416;2023-02-13T17:02:24;5.40;99.90
20158;DHT22;10239;56.820;24.416;2023-02-13T17:07:28;5.40;99.90
20158;DHT22;10239;56.820;24.416;2023-02-13T17:10:01;5.40;99.90
20158;DHT22;10239;56.820;24.416;2023-02-13T17:12:32;5.30;99.90
20158;DHT22;10239;56.820;24.416;2023-02-13T17:15:03;5.30;99.90
20158;DHT22;10239;56.820;24.416;2023-02-13T17:17:31;5.30;99.90
20158;DHT22;10239;56.820;24.416;2023-02-13T17:19:59;5.30;99.90
20158;DHT22;10239;56.820;24.416;2023-02-13T17:22:36;5.20;99.90
20158;DHT22;10239;56.820;24.416;2023-02-13T17:25:21;5.20;99.90
20158;DHT22;10239;56.820;24.416;2023-02-13T17:27:50;5.20;99.90
20158;DHT22;10239;56.820;24.416;2023-02-13T17:30:21;5.20;99.90
20158;DHT22;10239;56.820;24.416;2023-02-13T17:32:52;5.20;99.90
20158;DHT22;10239;56.820;24.416;2023-02-13T17:35:21;5.10;99.90
20158;DHT22;10239;56.820;24.416;2023-02-13T17:37:49;5.10;99.90
20158;DHT22;10239;56.820;24.416;2023-02-13T17:40:18;5.00;99.90
20158;DHT22;10239;56.820;24.416;2023-02-13T17:42:53;5.10;99.90
20158;DHT22;10239;56.820;24.416;2023-02-13T17:45:23;5.00;99.90
20158;DHT22;10239;56.820;24.416;2023-02-13T17:47:51;5.00;99.90
20158;DHT22;10239;56.820;24.416;2023-02-13T17:50:19;5.00;99.90
20158;DHT22;10239;56.820;24.416;2023-02-13T17:52:47;5.00;99.90
20158;DHT22;10239;56.820;24.416;2023-02-13T17:55:23;4.90;99.90
20158;DHT22;10239;56.820;24.416;2023-02-13T17:57:52;5.00;99.90
20158;DHT22;10239;56.820;24.416;2023-02-13T18:00:20;5.00;99.90
20158;DHT22;10239;56.820;24.416;2023-02-13T18:02:48;5.00;99.90
20158;DHT22;10239;56.820;24.416;2023-02-13T18:05:18;5.00;99.90
20158;DHT22;10239;56.820;24.416;2023-02-13T18:07:46;5.00;99.90
20158;DHT22;10239;56.820;24.416;2023-02-13T18:10:25;5.00;99.90
20158;DHT22;10239;56.820;24.416;2023-02-13T18:12:55;4.90;99.90
20158;DHT22;10239;56.820;24.416;2023-02-13T18:15:23;4.80;99.90
20158;DHT22;10239;56.820;24.416;2023-02-13T18:17:51;4.90;99.90
20158;DHT22;10239;56.820;24.416;2023-02-13T18:20:19;4.90;99.90
20158;DHT22;10239;56.820;24.416;2023-02-13T18:22:47;4.80;99.90
20158;DHT22;10239;56.820;24.416;2023-02-13T18:25:19;4.90;99.90
20158;DHT22;10239;56.820;24.416;2023-02-13T18:27:47;4.90;99.90
20158;DHT22;10239;56.820;24.416;2023-02-13T18:30:16;4.90;99.90
20158;DHT22;10239;56.820;24.416;2023-02-13T18:32:45;4.80;99.90
20158;DHT22;10239;56.820;24.416;2023-02-13T18:35:16;4.80;99.90
20158;DHT22;10239;56.820;24.416;2023-02-13T18:37:45;4.80;99.90
20158;DHT22;10239;56.820;24.416;2023-02-13T18:40:12;4.90;99.90
20158;DHT22;10239;56.820;24.416;2023-02-13T18:42:41;4.90;99.90
20158;DHT22;10239;56.820;24.416;2023-02-13T18:45:09;4.90;99.90
20158;DHT22;10239;56.820;24.416;2023-02-13T18:47:38;5.00;99.90
20158;DHT22;10239;56.820;24.416;2023-02-13T18:50:06;5.10;99.90
20158;DHT22;10239;56.820;24.416;2023-02-13T18:52:34;5.00;99.90
20158;DHT22;10239;56.820;24.416;2023-02-13T18:55:02;4.90;99.90
20158;DHT22;10239;56.820;24.416;2023-02-13T18:57:29;5.00;99.90
20158;DHT22;10239;56.820;24.416;2023-02-13T18:59:57;4.90;99.90
20158;DHT22;10239;56.820;24.416;2023-02-13T19:02:24;5.00;99.90